createdAt,value
2022-10-03T00:00:23.277Z,99.90
2022-10-03T00:03:22.001Z,99.90
2022-10-03T00:06:10.891Z,99.90
2022-10-03T00:08:47.572Z,99.90
2022-10-03T00:11:45.162Z,99.90
2022-10-03T00:14:18.093Z,99.90
2022-10-03T00:17:00.077Z,99.90
2022-10-03T00:19:50.562Z,99.90
2022-10-03T00:22:49.075Z,99.90
2022-10-03T00:25:28.079Z,99.90
2022-10-03T00:28:13.963Z,99.90
2022-10-03T00:31:04.161Z,99.90
2022-10-03T00:33:49.613Z,99.90
2022-10-03T00:36:58.147Z,99.90
2022-10-03T00:39:50.474Z,99.90
2022-10-03T00:42:23.174Z,99.90
2022-10-03T00:45:08.726Z,99.90
2022-10-03T00:48:03.307Z,99.90
2022-10-03T00:50:59.934Z,99.90
2022-10-03T00:54:18.555Z,99.90
2022-10-03T00:57:13.356Z,99.90
2022-10-03T01:00:14.136Z,99.90
2022-10-03T01:02:40.937Z,99.90
2022-10-03T01:05:38.714Z,99.90
2022-10-03T01:08:44.860Z,99.90
2022-10-03T01:11:20.487Z,99.90
2022-10-03T01:14:02.348Z,99.90
2022-10-03T01:16:58.871Z,99.90
2022-10-03T01:19:45.917Z,99.90
2022-10-03T01:22:31.618Z,99.90
2022-10-03T01:25:19.042Z,99.90
2022-10-03T01:28:31.415Z,99.90
2022-10-03T01:31:06.147Z,99.90
2022-10-03T01:33:42.449Z,99.90
2022-10-03T01:36:19.491Z,99.90
2022-10-03T01:38:58.532Z,99.90
2022-10-03T01:41:25.312Z,99.90
2022-10-03T01:44:00.656Z,99.90
2022-10-03T01:46:52.519Z,99.90
2022-10-03T01:49:22.348Z,99.90
2022-10-03T01:52:09.454Z,99.90
2022-10-03T01:54:40.313Z,99.90
2022-10-03T01:57:37.363Z,99.90
2022-10-03T02:00:17.871Z,99.90
2022-10-03T02:03:03.349Z,99.90
2022-10-03T02:05:49.971Z,99.90
2022-10-03T02:08:22.586Z,99.90
2022-10-03T02:11:08.339Z,99.90
2022-10-03T02:13:48.341Z,99.90
2022-10-03T02:16:42.598Z,99.90
2022-10-03T02:19:36.445Z,99.90
2022-10-03T02:22:03.454Z,99.90
2022-10-03T02:24:36.359Z,99.90
2022-10-03T02:27:24.980Z,99.90
2022-10-03T02:30:04.971Z,99.90
2022-10-03T02:32:56.664Z,99.90
2022-10-03T02:35:42.978Z,99.90
2022-10-03T02:38:29.353Z,99.90
2022-10-03T02:41:24.371Z,99.90
2022-10-03T02:44:20.289Z,99.90
2022-10-03T02:47:05.314Z,99.90
2022-10-03T02:50:09.153Z,99.90
2022-10-03T02:53:14.240Z,99.90
2022-10-03T02:56:08.795Z,99.90
2022-10-03T02:58:57.246Z,99.90
2022-10-03T03:01:48.497Z,99.90
2022-10-03T03:04:53.027Z,99.90
2022-10-03T03:07:30.747Z,99.90
2022-10-03T03:10:05.525Z,99.90
2022-10-03T03:12:33.261Z,99.90
2022-10-03T03:15:25.696Z,99.90
2022-10-03T03:18:19.431Z,99.90
2022-10-03T03:21:13.058Z,99.90
2022-10-03T03:23:55.157Z,99.90
2022-10-03T03:26:25.317Z,99.90
2022-10-03T03:28:59.909Z,99.90
2022-10-03T03:31:33.190Z,99.90
2022-10-03T03:34:13.520Z,99.90
2022-10-03T03:37:11.711Z,99.90
2022-10-03T03:40:13.490Z,99.90
2022-10-03T03:43:01.828Z,99.90
2022-10-03T03:45:50.571Z,99.90
2022-10-03T03:48:42.424Z,99.90
2022-10-03T03:51:33.250Z,99.90
2022-10-03T03:54:19.504Z,99.90
2022-10-03T03:57:24.160Z,99.90
2022-10-03T03:59:50.932Z,99.90
2022-10-03T04:02:39.314Z,99.90
2022-10-03T04:05:28.233Z,99.90
2022-10-03T04:08:19.012Z,99.90
2022-10-03T04:10:51.610Z,99.90
2022-10-03T04:13:38.892Z,99.90
2022-10-03T04:16:14.812Z,99.90
2022-10-03T04:19:09.546Z,99.90
2022-10-03T04:21:46.296Z,99.90
2022-10-03T04:24:49.899Z,99.90
2022-10-03T04:27:49.303Z,99.90
2022-10-03T04:30:30.424Z,99.90
2022-10-03T04:33:04.477Z,99.90
2022-10-03T04:36:10.178Z,99.90
2022-10-03T04:38:49.149Z,99.90
2022-10-03T04:41:27.754Z,99.90
2022-10-03T04:44:17.468Z,99.90
2022-10-03T04:46:54.602Z,99.90
2022-10-03T04:49:56.135Z,99.90
2022-10-03T04:52:49.655Z,99.90
2022-10-03T04:55:37.835Z,99.90
2022-10-03T04:58:39.255Z,99.90
2022-10-03T05:01:24.874Z,99.90
2022-10-03T05:04:22.610Z,99.90
2022-10-03T05:06:58.184Z,99.90
2022-10-03T05:09:40.051Z,99.90
2022-10-03T05:12:28.899Z,99.90
2022-10-03T05:15:10.995Z,99.90
2022-10-03T05:18:15.999Z,99.90
2022-10-03T05:20:53.825Z,99.90
2022-10-03T05:24:03.026Z,99.90
2022-10-03T05:26:59.758Z,99.90
2022-10-03T05:29:41.540Z,99.90
2022-10-03T05:32:30.639Z,99.90
2022-10-03T05:35:24.829Z,99.90
2022-10-03T05:38:36.078Z,99.90
2022-10-03T05:41:26.141Z,99.90
2022-10-03T05:44:40.927Z,99.90
2022-10-03T05:47:36.290Z,99.90
2022-10-03T05:50:18.136Z,99.90
2022-10-03T05:53:03.259Z,99.90
2022-10-03T05:55:35.872Z,99.90
2022-10-03T05:58:08.598Z,99.90
2022-10-03T06:00:38.275Z,99.90
2022-10-03T06:03:23.588Z,99.90
2022-10-03T06:05:56.178Z,99.90
2022-10-03T06:08:48.527Z,99.90
2022-10-03T06:11:47.597Z,99.90
2022-10-03T06:14:38.725Z,99.90
2022-10-03T06:17:17.400Z,99.90
2022-10-03T06:20:16.729Z,99.90
2022-10-03T06:23:08.351Z,99.90
2022-10-03T06:25:38.093Z,99.90
2022-10-03T06:28:26.988Z,99.90
2022-10-03T06:30:56.785Z,99.90
2022-10-03T06:33:26.816Z,99.90
2022-10-03T06:36:14.726Z,99.90
2022-10-03T06:39:19.427Z,99.90
2022-10-03T06:42:16.299Z,99.90
2022-10-03T06:44:46.162Z,99.90
2022-10-03T06:47:51.386Z,99.90
2022-10-03T06:50:30.092Z,99.90
2022-10-03T06:53:17.448Z,99.90
2022-10-03T06:56:05.819Z,99.90
2022-10-03T06:59:01.854Z,99.90
2022-10-03T07:01:40.922Z,99.90
2022-10-03T07:04:46.685Z,99.90
2022-10-03T07:07:30.188Z,99.90
2022-10-03T07:10:14.824Z,99.90
2022-10-03T07:13:12.058Z,99.90
2022-10-03T07:16:27.668Z,99.90
2022-10-03T07:19:13.357Z,99.90
2022-10-03T07:22:08.522Z,99.90
2022-10-03T07:24:54.834Z,99.90
2022-10-03T07:27:48.680Z,99.90
2022-10-03T07:30:23.258Z,99.90
2022-10-03T07:33:30.383Z,99.90
2022-10-03T07:36:40.772Z,99.90
2022-10-03T07:39:10.515Z,99.90
2022-10-03T07:42:04.549Z,99.90
2022-10-03T07:44:42.649Z,99.90
2022-10-03T07:47:34.625Z,99.90
2022-10-03T07:50:18.627Z,99.90
2022-10-03T07:53:23.244Z,99.90
2022-10-03T07:56:06.080Z,99.90
2022-10-03T07:58:55.075Z,99.90
2022-10-03T08:01:37.425Z,99.90
2022-10-03T08:04:14.446Z,99.90
2022-10-03T08:06:45.488Z,99.90
2022-10-03T08:09:50.535Z,99.90
2022-10-03T08:12:35.290Z,99.90
2022-10-03T08:15:10.981Z,99.90
2022-10-03T08:18:14.196Z,99.90
2022-10-03T08:20:49.857Z,99.90
2022-10-03T08:23:42.601Z,99.90
2022-10-03T08:26:36.090Z,99.90
2022-10-03T08:29:40.205Z,99.90
2022-10-03T08:32:27.175Z,99.90
2022-10-03T08:35:16.230Z,99.90
2022-10-03T08:38:21.515Z,99.90
2022-10-03T08:41:37.861Z,99.90
2022-10-03T08:44:25.032Z,99.90
2022-10-03T08:47:32.697Z,99.90
2022-10-03T08:50:18.120Z,99.90
2022-10-03T08:53:02.836Z,99.90
2022-10-03T08:55:35.266Z,99.90
2022-10-03T08:58:26.648Z,99.90
2022-10-03T09:01:16.014Z,99.90
2022-10-03T09:03:55.171Z,99.90
2022-10-03T09:07:12.193Z,99.90
2022-10-03T09:09:42.501Z,99.90
2022-10-03T09:12:33.072Z,99.90
2022-10-03T09:15:19.054Z,99.90
2022-10-03T09:18:10.532Z,99.90
2022-10-03T09:21:20.014Z,99.90
2022-10-03T09:24:07.528Z,99.90
2022-10-03T09:27:12.438Z,99.90
2022-10-03T09:30:20.044Z,99.90
2022-10-03T09:32:49.485Z,99.90
2022-10-03T09:35:54.221Z,99.90
2022-10-03T09:38:33.219Z,99.90
2022-10-03T09:40:59.925Z,99.90
2022-10-03T09:43:57.353Z,99.90
2022-10-03T09:46:36.852Z,99.90
2022-10-03T09:49:52.081Z,99.90
2022-10-03T09:52:56.978Z,99.90
2022-10-03T09:55:36.565Z,99.90
2022-10-03T09:58:03.240Z,99.90
2022-10-03T10:01:13.209Z,99.90
2022-10-03T10:03:46.219Z,99.90
2022-10-03T10:06:40.631Z,99.90
2022-10-03T10:09:22.629Z,99.90
2022-10-03T10:12:30.649Z,99.90
2022-10-03T10:15:42.132Z,99.90
2022-10-03T10:18:30.167Z,99.90
2022-10-03T10:21:50.600Z,99.90
2022-10-03T10:24:42.036Z,99.90
2022-10-03T10:27:52.508Z,99.90
2022-10-03T10:30:48.968Z,99.90
2022-10-03T10:33:53.111Z,99.90
2022-10-03T10:36:38.765Z,99.90
2022-10-03T10:39:29.857Z,99.90
2022-10-03T10:42:08.082Z,99.90
2022-10-03T10:45:19.021Z,99.90
2022-10-03T10:48:04.285Z,99.90
2022-10-03T10:50:59.242Z,99.90
2022-10-03T10:53:44.631Z,99.90
2022-10-03T10:56:52.952Z,99.90
2022-10-03T10:59:47.577Z,99.90
2022-10-03T11:02:29.266Z,99.90
2022-10-03T11:05:20.138Z,99.90
2022-10-03T11:08:14.692Z,99.90
2022-10-03T11:11:13.926Z,99.90
2022-10-03T11:13:58.777Z,99.90
2022-10-03T11:16:41.980Z,99.90
2022-10-03T11:19:35.276Z,99.90
2022-10-03T11:22:33.924Z,99.90
2022-10-03T11:25:28.780Z,99.90
2022-10-03T11:28:33.180Z,99.90
2022-10-03T11:31:45.327Z,99.90
2022-10-03T11:34:42.643Z,99.90
2022-10-03T11:37:29.104Z,99.90
2022-10-03T11:40:19.763Z,99.90
2022-10-03T11:43:01.312Z,99.90
2022-10-03T11:45:34.617Z,99.90
2022-10-03T11:48:07.226Z,99.90
2022-10-03T11:50:45.488Z,99.90
2022-10-03T11:53:34.996Z,99.90
2022-10-03T11:56:16.333Z,99.90
2022-10-03T11:59:12.717Z,99.90
2022-10-03T12:01:55.651Z,99.90
2022-10-03T12:04:50.827Z,99.90
2022-10-03T12:07:39.501Z,99.90
2022-10-03T12:10:40.582Z,99.90
2022-10-03T12:13:18.381Z,99.90
2022-10-03T12:15:54.629Z,99.90
2022-10-03T12:18:34.177Z,99.90
2022-10-03T12:21:21.780Z,99.90
2022-10-03T12:24:13.230Z,99.90
2022-10-03T12:27:01.025Z,99.90
2022-10-03T12:29:32.467Z,99.90
2022-10-03T12:32:37.236Z,99.90
2022-10-03T12:35:25.816Z,99.90
2022-10-03T12:37:58.380Z,99.90
2022-10-03T12:40:39.166Z,99.90
2022-10-03T12:43:42.717Z,99.90
2022-10-03T12:46:52.031Z,99.90
2022-10-03T12:49:24.632Z,99.90
2022-10-03T12:52:01.165Z,99.90
2022-10-03T12:54:48.024Z,99.90
2022-10-03T12:57:36.810Z,99.90
2022-10-03T13:00:27.730Z,99.90
2022-10-03T13:02:58.250Z,99.90
2022-10-03T13:05:55.493Z,99.90
2022-10-03T13:08:40.967Z,99.90
2022-10-03T13:11:26.024Z,99.90
2022-10-03T13:14:06.373Z,99.90
2022-10-03T13:16:45.532Z,99.90
2022-10-03T13:19:17.668Z,99.90
2022-10-03T13:21:45.881Z,99.90
2022-10-03T13:24:35.075Z,99.90
2022-10-03T13:27:29.274Z,99.90
2022-10-03T13:30:21.087Z,99.90
2022-10-03T13:32:54.987Z,99.90
2022-10-03T13:35:51.003Z,99.90
2022-10-03T13:38:51.358Z,99.90
2022-10-03T13:41:30.051Z,99.90
2022-10-03T13:44:17.880Z,99.90
2022-10-03T13:46:54.272Z,99.90
2022-10-03T13:49:32.566Z,99.90
2022-10-03T13:52:07.540Z,99.90
2022-10-03T13:54:53.563Z,99.90
2022-10-03T13:57:54.136Z,99.90
2022-10-03T14:00:24.996Z,99.90
2022-10-03T14:03:11.248Z,99.90
2022-10-03T14:05:38.433Z,99.90
2022-10-03T14:08:05.331Z,99.90
2022-10-03T14:10:50.922Z,99.90
2022-10-03T14:13:56.181Z,99.90
2022-10-03T14:16:42.830Z,99.90
2022-10-03T14:19:47.238Z,99.90
2022-10-03T14:22:30.910Z,99.90
2022-10-03T14:25:32.697Z,98.70
2022-10-03T14:28:24.464Z,98.40
2022-10-03T14:31:12.003Z,99.40
2022-10-03T14:33:44.966Z,97.50
2022-10-03T14:36:21.022Z,98.10
2022-10-03T14:39:02.017Z,94.40
2022-10-03T14:41:56.222Z,95.90
2022-10-03T14:44:27.566Z,90.20
2022-10-03T14:47:03.333Z,93.00
2022-10-03T14:49:53.516Z,96.30
2022-10-03T14:52:43.824Z,96.60
2022-10-03T14:55:13.596Z,98.80
2022-10-03T14:58:10.764Z,95.40
2022-10-03T15:00:43.111Z,96.50
2022-10-03T15:03:33.742Z,95.70
2022-10-03T15:06:02.332Z,98.50
2022-10-03T15:08:57.061Z,98.80
2022-10-03T15:11:35.992Z,92.60
2022-10-03T15:14:06.445Z,94.10
2022-10-03T15:16:39.003Z,98.00
2022-10-03T15:19:11.378Z,99.90
2022-10-03T15:21:43.561Z,98.90
2022-10-03T15:24:14.880Z,99.90
2022-10-03T15:26:51.279Z,99.90
2022-10-03T15:29:20.469Z,99.90
2022-10-03T15:31:51.255Z,99.90
2022-10-03T15:34:40.879Z,99.90
2022-10-03T15:37:19.843Z,99.90
2022-10-03T15:39:48.229Z,99.90
2022-10-03T15:42:23.588Z,99.90
2022-10-03T15:44:54.735Z,99.90
2022-10-03T15:47:28.502Z,99.90
2022-10-03T15:50:04.701Z,99.90
2022-10-03T15:52:53.416Z,99.90
2022-10-03T15:55:39.783Z,99.90
2022-10-03T15:58:16.279Z,99.90
2022-10-03T16:00:48.504Z,99.90
2022-10-03T16:03:32.437Z,99.90
2022-10-03T16:06:02.025Z,99.70
2022-10-03T16:08:32.815Z,99.90
2022-10-03T16:11:21.359Z,99.90
2022-10-03T16:14:06.470Z,99.90
2022-10-03T16:16:41.549Z,99.90
2022-10-03T16:19:20.592Z,99.90
2022-10-03T16:21:54.032Z,99.90
2022-10-03T16:24:35.581Z,99.90
2022-10-03T16:27:18.634Z,99.90
2022-10-03T16:29:56.209Z,99.90
2022-10-03T16:32:27.155Z,99.90
2022-10-03T16:34:59.497Z,99.90
2022-10-03T16:37:28.099Z,99.90
2022-10-03T16:40:04.163Z,99.90
2022-10-03T16:42:43.744Z,99.90
2022-10-03T16:45:32.718Z,99.90
2022-10-03T16:48:28.642Z,99.90
2022-10-03T16:50:56.576Z,99.90
2022-10-03T16:53:24.380Z,99.90
2022-10-03T16:56:00.015Z,99.90
2022-10-03T16:58:31.462Z,99.90
2022-10-03T17:01:32.774Z,99.90
2022-10-03T17:04:20.816Z,99.90
2022-10-03T17:06:50.096Z,99.90
2022-10-03T17:09:40.954Z,99.90
2022-10-03T17:12:18.094Z,99.90
2022-10-03T17:14:45.459Z,99.90
2022-10-03T17:17:49.944Z,99.90
2022-10-03T17:20:42.108Z,99.90
2022-10-03T17:23:48.187Z,99.90
2022-10-03T17:26:29.621Z,99.90
2022-10-03T17:29:13.538Z,99.90
2022-10-03T17:31:58.010Z,99.90
2022-10-03T17:34:33.642Z,99.90
2022-10-03T17:37:26.651Z,99.90
2022-10-03T17:40:03.522Z,99.90
2022-10-03T17:42:33.068Z,99.90
2022-10-03T17:45:25.560Z,99.90
2022-10-03T17:48:12.458Z,99.90
2022-10-03T17:51:05.136Z,99.90
2022-10-03T17:53:36.477Z,99.90
2022-10-03T17:56:13.193Z,99.90
2022-10-03T17:58:45.869Z,99.90
2022-10-03T18:01:18.894Z,99.90
2022-10-03T18:04:02.745Z,99.90
2022-10-03T18:06:32.413Z,99.90
2022-10-03T18:09:02.075Z,99.90
2022-10-03T18:11:33.753Z,99.90
2022-10-03T18:14:11.579Z,99.90
2022-10-03T18:16:53.140Z,99.90
2022-10-03T18:19:25.810Z,99.90
2022-10-03T18:21:53.796Z,99.90
2022-10-03T18:24:26.751Z,99.90
2022-10-03T18:27:06.220Z,99.90
2022-10-03T18:29:35.726Z,99.90
2022-10-03T18:32:25.481Z,99.90
2022-10-03T18:35:15.202Z,99.90
2022-10-03T18:37:44.927Z,99.90
2022-10-03T18:40:17.445Z,99.90
2022-10-03T18:42:50.494Z,99.90
2022-10-03T18:45:30.020Z,99.90
2022-10-03T18:48:20.945Z,99.90
2022-10-03T18:50:56.445Z,99.90
2022-10-03T18:53:35.017Z,99.90
2022-10-03T18:56:26.115Z,99.90
2022-10-03T18:59:08.237Z,99.90
2022-10-03T19:01:54.462Z,99.90
2022-10-03T19:04:24.614Z,99.90
2022-10-03T19:06:53.831Z,99.90
2022-10-03T19:09:39.138Z,99.90
2022-10-03T19:12:21.085Z,99.90
2022-10-03T19:15:00.641Z,99.90
2022-10-03T19:17:36.431Z,99.90
2022-10-03T19:20:26.752Z,99.90
2022-10-03T19:23:18.908Z,99.90
2022-10-03T19:25:52.225Z,99.90
2022-10-03T19:28:27.625Z,99.90
2022-10-03T19:31:16.046Z,99.90
2022-10-03T19:33:48.428Z,99.90
2022-10-03T19:36:29.540Z,99.90
2022-10-03T19:38:58.309Z,99.90
2022-10-03T19:41:52.403Z,99.90
2022-10-03T19:44:27.467Z,99.90
2022-10-03T19:47:06.638Z,99.90
2022-10-03T19:49:44.060Z,99.90
2022-10-03T19:52:27.941Z,99.90
2022-10-03T19:55:15.855Z,99.90
2022-10-03T19:57:48.240Z,99.90
2022-10-03T20:00:14.982Z,99.90
2022-10-03T20:02:43.726Z,99.90
2022-10-03T20:05:22.903Z,99.90
2022-10-03T20:08:35.780Z,99.90
2022-10-03T20:11:18.172Z,99.90
2022-10-03T20:13:48.091Z,99.90
2022-10-03T20:16:18.057Z,99.90
2022-10-03T20:18:48.556Z,99.90
2022-10-03T20:21:20.327Z,99.90
2022-10-03T20:23:48.218Z,99.90
2022-10-03T20:26:29.316Z,99.90
2022-10-03T20:29:44.336Z,99.90
2022-10-03T20:32:16.661Z,99.90
2022-10-03T20:34:54.382Z,99.90
2022-10-03T20:37:36.597Z,99.90
2022-10-03T20:40:46.789Z,99.90
2022-10-03T20:43:19.828Z,99.90
2022-10-03T20:46:03.441Z,99.90
2022-10-03T20:48:36.464Z,99.90
2022-10-03T20:51:04.142Z,99.90
2022-10-03T20:53:31.846Z,99.90
2022-10-03T20:56:11.264Z,99.90
2022-10-03T20:58:52.036Z,99.90
2022-10-03T21:01:31.635Z,99.90
2022-10-03T21:04:13.572Z,99.90
2022-10-03T21:07:08.600Z,99.90
2022-10-03T21:09:46.301Z,99.90
2022-10-03T21:12:19.188Z,99.90
2022-10-03T21:14:51.232Z,99.90
2022-10-03T21:17:19.843Z,99.90
2022-10-03T21:19:52.185Z,99.90
2022-10-03T21:22:23.375Z,99.90
2022-10-03T21:25:07.772Z,99.90
2022-10-03T21:27:34.883Z,99.90
2022-10-03T21:30:16.794Z,99.90
2022-10-03T21:32:58.659Z,99.90
2022-10-03T21:35:35.749Z,99.90
2022-10-03T21:38:24.831Z,99.90
2022-10-03T21:40:57.524Z,99.90
2022-10-03T21:43:42.577Z,99.90
2022-10-03T21:46:14.463Z,99.90
2022-10-03T21:48:59.230Z,99.90
2022-10-03T21:51:57.412Z,99.90
2022-10-03T21:54:45.795Z,99.90
2022-10-03T21:57:50.119Z,99.90
2022-10-03T22:00:19.315Z,99.90
2022-10-03T22:02:51.946Z,99.90
2022-10-03T22:05:49.244Z,99.90
2022-10-03T22:08:29.553Z,99.90
2022-10-03T22:11:08.774Z,99.90
2022-10-03T22:13:39.040Z,99.90
2022-10-03T22:16:21.966Z,99.90
2022-10-03T22:19:25.389Z,99.90
2022-10-03T22:22:03.852Z,99.90
2022-10-03T22:25:21.226Z,99.90
2022-10-03T22:28:04.645Z,99.90
2022-10-03T22:30:37.214Z,99.90
2022-10-03T22:33:28.169Z,99.90
2022-10-03T22:35:59.551Z,99.90
2022-10-03T22:38:32.686Z,99.90
2022-10-03T22:41:05.307Z,99.90
2022-10-03T22:43:35.946Z,99.90
2022-10-03T22:46:04.882Z,99.90
2022-10-03T22:48:36.200Z,99.90
2022-10-03T22:51:09.099Z,99.90
2022-10-03T22:53:37.589Z,99.90
2022-10-03T22:56:42.862Z,99.90
2022-10-03T22:59:20.270Z,99.90
2022-10-03T23:01:49.092Z,99.90
2022-10-03T23:04:30.715Z,99.90
2022-10-03T23:07:36.167Z,99.90
2022-10-03T23:10:17.995Z,99.90
2022-10-03T23:13:02.460Z,99.90
2022-10-03T23:15:32.152Z,99.90
2022-10-03T23:18:11.112Z,99.90
2022-10-03T23:21:04.740Z,99.90
2022-10-03T23:23:58.178Z,99.90
2022-10-03T23:26:59.214Z,99.90
2022-10-03T23:29:26.052Z,99.90
2022-10-03T23:32:09.926Z,99.90
2022-10-03T23:34:36.691Z,99.90
2022-10-03T23:37:15.536Z,99.90
2022-10-03T23:39:44.657Z,99.90
2022-10-03T23:42:20.512Z,99.90
2022-10-03T23:45:19.213Z,99.90
2022-10-03T23:47:53.089Z,99.90
2022-10-03T23:50:26.788Z,99.90
2022-10-03T23:52:57.514Z,99.90
2022-10-03T23:55:28.561Z,99.90
2022-10-03T23:57:55.683Z,99.90
